createdAt,value
2023-01-19T00:00:35.523Z,45.11
2023-01-19T00:01:38.866Z,45.30
2023-01-19T00:02:43.543Z,45.25
2023-01-19T00:03:47.019Z,45.85
2023-01-19T00:04:50.330Z,45.51
2023-01-19T00:05:55.450Z,45.17
2023-01-19T00:06:59.368Z,45.08
2023-01-19T00:08:14.801Z,45.21
2023-01-19T00:09:18.295Z,45.70
2023-01-19T00:10:20.725Z,45.56
2023-01-19T00:11:24.207Z,45.21
2023-01-19T00:12:26.822Z,45.77
2023-01-19T00:13:30.506Z,46.50
2023-01-19T00:14:34.068Z,47.36
2023-01-19T00:15:36.903Z,47.62
2023-01-19T00:16:40.536Z,46.82
2023-01-19T00:17:42.798Z,47.22
2023-01-19T00:18:46.218Z,46.79
2023-01-19T00:19:48.637Z,46.74
2023-01-19T00:20:52.297Z,46.50
2023-01-19T00:21:56.699Z,46.20
2023-01-19T00:23:01.044Z,46.83
2023-01-19T00:24:04.975Z,46.83
2023-01-19T00:25:08.432Z,46.14
2023-01-19T00:26:12.269Z,45.92
2023-01-19T00:27:15.578Z,45.83
2023-01-19T00:28:19.216Z,45.97
2023-01-19T00:29:22.428Z,46.25
2023-01-19T00:30:24.686Z,45.61
2023-01-19T00:31:30.107Z,45.63
2023-01-19T00:32:33.121Z,45.71
2023-01-19T00:33:36.453Z,46.29
2023-01-19T00:34:49.431Z,45.94
2023-01-19T00:35:55.020Z,45.78
2023-01-19T00:37:02.153Z,46.00
2023-01-19T00:38:05.821Z,45.92
2023-01-19T00:39:08.268Z,45.58
2023-01-19T00:40:12.967Z,45.60
2023-01-19T00:41:15.498Z,45.06
2023-01-19T00:42:36.448Z,45.08
2023-01-19T00:43:39.959Z,44.81
2023-01-19T00:44:42.858Z,44.21
2023-01-19T00:45:47.200Z,44.27
2023-01-19T00:46:49.757Z,44.41
2023-01-19T00:47:57.030Z,44.24
2023-01-19T00:48:59.325Z,45.42
2023-01-19T00:50:02.678Z,45.20
2023-01-19T00:51:06.654Z,44.92
2023-01-19T00:52:10.990Z,45.88
2023-01-19T00:53:14.548Z,46.69
2023-01-19T00:54:17.290Z,45.86
2023-01-19T00:55:21.979Z,45.77
2023-01-19T00:56:24.549Z,45.87
2023-01-19T00:57:29.691Z,46.57
2023-01-19T00:58:33.014Z,45.92
2023-01-19T00:59:35.529Z,46.68
2023-01-19T01:00:38.971Z,46.22
2023-01-19T01:01:45.157Z,45.83
2023-01-19T01:02:51.639Z,45.83
2023-01-19T01:03:54.168Z,46.17
2023-01-19T01:04:57.478Z,45.80
2023-01-19T01:06:00.143Z,46.59
2023-01-19T01:07:03.789Z,45.71
2023-01-19T01:08:07.707Z,46.67
2023-01-19T01:09:13.005Z,46.56
2023-01-19T01:10:17.617Z,45.97
2023-01-19T01:11:21.358Z,45.34
2023-01-19T01:12:24.197Z,45.28
2023-01-19T01:13:28.331Z,44.76
2023-01-19T01:14:31.158Z,45.05
2023-01-19T01:15:34.763Z,46.37
2023-01-19T01:16:37.226Z,46.00
2023-01-19T01:17:46.745Z,45.03
2023-01-19T01:18:49.053Z,45.53
2023-01-19T01:19:52.581Z,45.77
2023-01-19T01:21:01.921Z,45.86
2023-01-19T01:22:05.968Z,45.75
2023-01-19T01:23:10.399Z,46.54
2023-01-19T01:24:14.263Z,46.59
2023-01-19T01:25:18.091Z,47.05
2023-01-19T01:26:21.381Z,47.41
2023-01-19T01:27:23.596Z,47.00
2023-01-19T01:28:26.982Z,46.92
2023-01-19T01:29:29.666Z,46.96
2023-01-19T01:30:33.705Z,47.55
2023-01-19T01:31:35.999Z,48.71
2023-01-19T01:32:39.317Z,49.58
2023-01-19T01:33:42.001Z,49.69
2023-01-19T01:34:45.532Z,50.66
2023-01-19T01:35:49.155Z,50.41
2023-01-19T01:36:52.857Z,49.44
2023-01-19T01:37:58.938Z,50.88
2023-01-19T01:39:04.035Z,49.56
2023-01-19T01:40:07.985Z,48.81
2023-01-19T01:41:11.447Z,49.50
2023-01-19T01:42:17.829Z,49.49
2023-01-19T01:43:21.819Z,50.75
2023-01-19T01:44:51.615Z,50.73
2023-01-19T01:45:55.560Z,50.19
2023-01-19T01:46:58.563Z,50.73
2023-01-19T01:48:07.558Z,49.96
2023-01-19T01:49:14.659Z,49.49
2023-01-19T01:50:22.662Z,48.58
2023-01-19T01:51:29.872Z,47.96
2023-01-19T01:52:34.553Z,47.77
2023-01-19T01:53:39.812Z,48.09
2023-01-19T01:54:44.271Z,47.98
2023-01-19T01:55:50.877Z,48.37
2023-01-19T01:56:57.305Z,48.29
2023-01-19T01:58:05.151Z,47.88
2023-01-19T01:59:13.399Z,48.11
2023-01-19T02:00:17.808Z,49.13
2023-01-19T02:01:38.972Z,49.22
2023-01-19T02:02:55.232Z,50.24
2023-01-19T02:03:58.801Z,50.79
2023-01-19T02:05:06.118Z,50.38
2023-01-19T02:06:10.002Z,49.98
2023-01-19T02:07:33.584Z,49.81
2023-01-19T02:08:59.425Z,50.64
2023-01-19T02:10:21.410Z,50.42
2023-01-19T02:11:42.402Z,50.48
2023-01-19T02:13:03.703Z,50.81
2023-01-19T02:14:07.893Z,52.23
2023-01-19T02:15:18.566Z,51.02
2023-01-19T02:16:22.324Z,50.93
2023-01-19T02:17:25.057Z,50.63
2023-01-19T02:18:31.698Z,50.75
2023-01-19T02:19:41.137Z,51.01
2023-01-19T02:20:51.382Z,50.96
2023-01-19T02:21:59.936Z,50.39
2023-01-19T02:23:08.241Z,50.04
2023-01-19T02:24:12.131Z,49.76
2023-01-19T02:25:16.282Z,49.01
2023-01-19T02:26:22.211Z,48.20
2023-01-19T02:27:25.580Z,48.31
2023-01-19T02:28:29.740Z,48.79
2023-01-19T02:29:34.992Z,47.91
2023-01-19T02:30:41.223Z,49.35
2023-01-19T02:31:45.358Z,49.08
2023-01-19T02:32:48.202Z,49.59
2023-01-19T02:33:52.141Z,50.95
2023-01-19T02:34:55.498Z,51.72
2023-01-19T02:35:59.537Z,51.44
2023-01-19T02:37:06.838Z,50.55
2023-01-19T02:38:12.187Z,49.18
2023-01-19T02:39:19.607Z,48.46
2023-01-19T02:40:25.145Z,47.12
2023-01-19T02:41:31.279Z,47.55
2023-01-19T02:42:38.429Z,47.89
2023-01-19T02:43:43.033Z,48.56
2023-01-19T02:44:50.230Z,49.10
2023-01-19T02:45:52.976Z,49.69
2023-01-19T02:46:56.656Z,49.41
2023-01-19T02:47:59.169Z,48.40
2023-01-19T02:49:02.753Z,47.80
2023-01-19T02:50:06.226Z,48.39
2023-01-19T02:51:15.630Z,48.59
2023-01-19T02:52:18.839Z,47.84
2023-01-19T02:54:04.817Z,47.81
2023-01-19T02:55:18.262Z,47.72
2023-01-19T02:57:03.196Z,46.73
2023-01-19T02:58:12.069Z,46.99
2023-01-19T02:59:23.698Z,46.61
2023-01-19T03:00:36.934Z,47.16
2023-01-19T03:01:54.258Z,46.89
2023-01-19T03:03:13.081Z,46.78
2023-01-19T03:04:27.615Z,46.71
2023-01-19T03:05:43.244Z,46.24
2023-01-19T03:06:49.598Z,45.99
2023-01-19T03:08:03.928Z,47.24
2023-01-19T03:09:14.100Z,46.65
2023-01-19T03:10:27.935Z,45.85
2023-01-19T03:11:35.298Z,45.97
2023-01-19T03:12:44.034Z,45.44
2023-01-19T03:13:52.737Z,44.60
2023-01-19T03:15:02.262Z,44.96
2023-01-19T03:16:09.488Z,45.01
2023-01-19T03:17:13.931Z,44.80
2023-01-19T03:18:20.432Z,44.79
2023-01-19T03:19:28.353Z,44.65
2023-01-19T03:20:30.826Z,44.83
2023-01-19T03:21:37.134Z,45.01
2023-01-19T03:22:39.960Z,44.68
2023-01-19T03:23:47.510Z,44.54
2023-01-19T03:24:53.724Z,44.42
2023-01-19T03:26:01.813Z,44.35
2023-01-19T03:27:11.918Z,44.25
2023-01-19T03:28:16.488Z,44.11
2023-01-19T03:29:20.030Z,44.00
2023-01-19T03:30:27.689Z,44.51
2023-01-19T03:31:32.300Z,44.32
2023-01-19T03:32:39.990Z,44.25
2023-01-19T03:33:46.758Z,44.19
2023-01-19T03:34:52.505Z,44.21
2023-01-19T03:36:03.628Z,44.49
2023-01-19T03:37:09.385Z,44.33
2023-01-19T03:38:16.839Z,44.40
2023-01-19T03:39:24.233Z,43.13
2023-01-19T03:40:30.846Z,43.88
2023-01-19T03:41:37.635Z,44.47
2023-01-19T03:42:42.362Z,43.18
2023-01-19T03:43:48.107Z,42.19
2023-01-19T03:44:55.513Z,42.15
2023-01-19T03:45:58.298Z,43.06
2023-01-19T03:47:04.521Z,43.47
2023-01-19T03:48:07.907Z,42.94
2023-01-19T03:49:11.347Z,42.26
2023-01-19T03:50:24.458Z,41.94
2023-01-19T03:51:28.603Z,42.12
2023-01-19T03:52:33.660Z,42.48
2023-01-19T03:53:37.024Z,42.87
2023-01-19T03:54:41.001Z,43.23
2023-01-19T03:55:48.317Z,43.86
2023-01-19T03:56:52.580Z,44.57
2023-01-19T03:57:56.339Z,43.97
2023-01-19T03:58:58.623Z,44.75
2023-01-19T04:00:02.189Z,45.28
2023-01-19T04:01:04.908Z,46.27
2023-01-19T04:02:08.269Z,48.31
2023-01-19T04:03:14.474Z,50.69
2023-01-19T04:04:18.174Z,50.43
2023-01-19T04:05:20.964Z,50.64
2023-01-19T04:06:24.690Z,51.35
2023-01-19T04:07:28.627Z,51.36
2023-01-19T04:08:32.843Z,50.77
2023-01-19T04:09:36.576Z,50.90
2023-01-19T04:10:40.358Z,51.40
2023-01-19T04:11:44.245Z,51.97
2023-01-19T04:12:48.881Z,52.57
2023-01-19T04:13:52.351Z,52.23
2023-01-19T04:14:54.810Z,52.62
2023-01-19T04:16:01.561Z,53.30
2023-01-19T04:17:03.969Z,53.97
2023-01-19T04:18:07.914Z,53.13
2023-01-19T04:19:11.590Z,53.07
2023-01-19T04:20:15.040Z,52.94
2023-01-19T04:21:18.046Z,54.08
2023-01-19T04:22:21.907Z,53.90
2023-01-19T04:23:25.525Z,53.27
2023-01-19T04:24:29.305Z,52.77
2023-01-19T04:25:31.876Z,52.67
2023-01-19T04:26:35.155Z,51.52
2023-01-19T04:27:37.796Z,51.95
2023-01-19T04:28:43.718Z,51.97
2023-01-19T04:29:47.229Z,52.20
2023-01-19T04:30:52.238Z,52.42
2023-01-19T04:31:54.606Z,53.92
2023-01-19T04:33:00.454Z,53.01
2023-01-19T04:34:04.138Z,52.00
2023-01-19T04:35:07.951Z,51.88
2023-01-19T04:36:10.825Z,52.74
2023-01-19T04:37:14.477Z,52.24
2023-01-19T04:38:17.884Z,52.11
2023-01-19T04:39:21.441Z,51.64
2023-01-19T04:40:23.764Z,52.01
2023-01-19T04:41:27.674Z,51.42
2023-01-19T04:42:32.418Z,51.62
2023-01-19T04:43:37.082Z,52.72
2023-01-19T04:44:40.971Z,52.13
2023-01-19T04:45:45.302Z,50.72
2023-01-19T04:46:48.482Z,50.89
2023-01-19T04:47:52.634Z,51.58
2023-01-19T04:48:55.115Z,52.41
2023-01-19T04:49:59.644Z,51.29
2023-01-19T04:51:02.069Z,51.66
2023-01-19T04:52:06.297Z,52.42
2023-01-19T04:53:09.183Z,53.01
2023-01-19T04:54:13.149Z,52.54
2023-01-19T04:55:16.227Z,52.98
2023-01-19T04:56:19.857Z,52.69
2023-01-19T04:57:22.827Z,52.70
2023-01-19T04:58:26.396Z,52.83
2023-01-19T04:59:28.841Z,52.44
2023-01-19T05:00:33.868Z,52.05
2023-01-19T05:01:36.991Z,51.27
2023-01-19T05:02:42.808Z,48.97
2023-01-19T05:03:46.234Z,48.86
2023-01-19T05:04:48.883Z,49.27
2023-01-19T05:05:53.040Z,48.93
2023-01-19T05:06:58.331Z,49.54
2023-01-19T05:08:02.022Z,50.47
2023-01-19T05:09:07.920Z,50.54
2023-01-19T05:10:13.033Z,50.36
2023-01-19T05:11:15.677Z,50.19
2023-01-19T05:12:19.373Z,50.41
2023-01-19T05:13:21.668Z,50.43
2023-01-19T05:14:25.072Z,50.79
2023-01-19T05:15:27.941Z,50.29
2023-01-19T05:16:32.776Z,49.82
2023-01-19T05:17:36.082Z,49.84
2023-01-19T05:18:39.407Z,50.61
2023-01-19T05:19:41.823Z,50.22
2023-01-19T05:20:45.187Z,49.92
2023-01-19T05:21:47.517Z,50.36
2023-01-19T05:22:51.726Z,50.90
2023-01-19T05:23:54.668Z,50.88
2023-01-19T05:24:58.755Z,50.50
2023-01-19T05:26:02.127Z,50.79
2023-01-19T05:27:05.537Z,49.98
2023-01-19T05:28:07.905Z,49.48
2023-01-19T05:29:11.558Z,49.29
2023-01-19T05:30:15.064Z,49.34
2023-01-19T05:31:19.585Z,48.95
2023-01-19T05:32:23.621Z,48.01
2023-01-19T05:33:27.822Z,48.44
2023-01-19T05:34:30.397Z,49.98
2023-01-19T05:35:36.246Z,50.08
2023-01-19T05:36:39.223Z,49.15
2023-01-19T05:37:42.938Z,49.81
2023-01-19T05:38:45.281Z,48.16
2023-01-19T05:39:48.602Z,48.63
2023-01-19T05:40:56.461Z,48.65
2023-01-19T05:41:59.676Z,48.41
2023-01-19T05:43:04.666Z,48.73
2023-01-19T05:44:08.378Z,48.47
2023-01-19T05:45:12.559Z,47.59
2023-01-19T05:46:16.091Z,48.14
2023-01-19T05:47:18.298Z,45.25
2023-01-19T05:48:22.954Z,46.61
2023-01-19T05:49:25.365Z,45.42
2023-01-19T05:50:28.749Z,46.95
2023-01-19T05:51:35.194Z,44.79
2023-01-19T05:52:38.479Z,45.33
2023-01-19T05:53:40.782Z,44.46
2023-01-19T05:54:44.313Z,45.52
2023-01-19T05:55:46.829Z,44.97
2023-01-19T05:56:50.023Z,43.21
2023-01-19T05:57:52.309Z,43.61
2023-01-19T05:58:55.876Z,43.77
2023-01-19T05:59:59.404Z,42.81
2023-01-19T06:01:03.354Z,43.63
2023-01-19T06:02:07.343Z,42.31
2023-01-19T06:03:09.595Z,42.46
2023-01-19T06:04:14.526Z,41.87
2023-01-19T06:05:17.471Z,41.75
2023-01-19T06:06:21.129Z,41.86
2023-01-19T06:07:25.301Z,41.91
2023-01-19T06:08:29.427Z,41.73
2023-01-19T06:09:31.710Z,41.81
2023-01-19T06:10:35.354Z,41.38
2023-01-19T06:11:37.732Z,41.86
2023-01-19T06:12:41.707Z,41.93
2023-01-19T06:13:44.127Z,41.54
2023-01-19T06:14:47.740Z,42.25
2023-01-19T06:15:57.190Z,41.80
2023-01-19T06:17:00.809Z,42.49
2023-01-19T06:18:03.233Z,42.35
2023-01-19T06:19:06.804Z,41.80
2023-01-19T06:20:14.092Z,40.82
2023-01-19T06:21:17.714Z,41.50
2023-01-19T06:22:20.821Z,41.56
2023-01-19T06:23:23.243Z,41.36
2023-01-19T06:24:26.553Z,42.23
2023-01-19T06:25:28.758Z,41.41
2023-01-19T06:26:32.170Z,41.89
2023-01-19T06:27:34.455Z,41.12
2023-01-19T06:28:37.767Z,40.87
2023-01-19T06:29:40.210Z,40.52
2023-01-19T06:30:43.533Z,40.47
2023-01-19T06:31:45.898Z,41.84
2023-01-19T06:32:49.310Z,40.90
2023-01-19T06:33:52.591Z,41.84
2023-01-19T06:34:56.121Z,40.93
2023-01-19T06:35:59.855Z,41.25
2023-01-19T06:37:03.969Z,40.94
2023-01-19T06:38:06.135Z,41.65
2023-01-19T06:39:11.050Z,40.08
2023-01-19T06:40:14.519Z,40.15
2023-01-19T06:41:17.918Z,40.45
2023-01-19T06:42:20.408Z,39.91
2023-01-19T06:43:24.164Z,40.22
2023-01-19T06:44:26.389Z,41.48
2023-01-19T06:45:29.609Z,40.19
2023-01-19T06:46:32.396Z,40.23
2023-01-19T06:47:35.939Z,40.71
2023-01-19T06:48:39.181Z,40.32
2023-01-19T06:49:41.817Z,40.60
2023-01-19T06:50:46.435Z,40.09
2023-01-19T06:51:51.115Z,40.12
2023-01-19T06:52:53.851Z,40.98
2023-01-19T06:53:57.459Z,41.96
2023-01-19T06:55:00.780Z,40.65
2023-01-19T06:56:04.862Z,41.76
2023-01-19T06:57:08.686Z,41.70
2023-01-19T06:58:11.438Z,41.30
2023-01-19T06:59:14.629Z,41.61
2023-01-19T07:00:17.954Z,41.70
2023-01-19T07:01:21.452Z,41.35
2023-01-19T07:02:27.770Z,41.85
2023-01-19T07:03:31.746Z,42.24
2023-01-19T07:04:35.116Z,41.38
2023-01-19T07:05:37.788Z,40.78
2023-01-19T07:06:41.674Z,41.16
2023-01-19T07:07:45.577Z,41.56
2023-01-19T07:08:48.841Z,41.72
2023-01-19T07:09:53.856Z,41.28
2023-01-19T07:11:24.689Z,40.88
2023-01-19T07:12:24.913Z,40.88
2023-01-19T07:13:28.646Z,40.27
2023-01-19T07:14:34.037Z,40.59
2023-01-19T07:15:37.764Z,40.91
2023-01-19T07:16:41.635Z,41.65
2023-01-19T07:17:45.228Z,42.61
2023-01-19T07:18:48.620Z,41.80
2023-01-19T07:19:52.123Z,41.61
2023-01-19T07:20:55.353Z,41.46
2023-01-19T07:21:59.370Z,40.77
2023-01-19T07:23:03.828Z,41.21
2023-01-19T07:24:07.987Z,41.14
2023-01-19T07:25:10.781Z,41.15
2023-01-19T07:26:15.397Z,42.09
2023-01-19T07:27:18.893Z,41.08
2023-01-19T07:28:22.158Z,40.59
2023-01-19T07:29:24.829Z,40.94
2023-01-19T07:30:28.847Z,40.60
2023-01-19T07:31:31.208Z,40.74
2023-01-19T07:32:34.710Z,39.83
2023-01-19T07:33:38.329Z,40.22
2023-01-19T07:34:40.627Z,40.62
2023-01-19T07:35:48.705Z,41.52
2023-01-19T07:36:52.462Z,40.59
2023-01-19T07:37:55.126Z,39.77
2023-01-19T07:39:00.008Z,40.28
2023-01-19T07:40:02.208Z,40.88
2023-01-19T07:41:06.928Z,40.35
2023-01-19T07:42:10.691Z,40.55
2023-01-19T07:43:13.354Z,39.03
2023-01-19T07:44:16.796Z,39.31
2023-01-19T07:45:20.891Z,39.24
2023-01-19T07:46:24.235Z,39.61
2023-01-19T07:47:27.777Z,40.22
2023-01-19T07:48:30.288Z,39.54
2023-01-19T07:49:33.882Z,38.77
2023-01-19T07:50:36.119Z,38.73
2023-01-19T07:51:39.378Z,38.97
2023-01-19T07:52:42.073Z,40.48
2023-01-19T07:53:45.942Z,39.02
2023-01-19T07:54:51.148Z,39.72
2023-01-19T07:55:56.826Z,39.64
2023-01-19T07:57:00.765Z,39.02
2023-01-19T07:58:07.687Z,39.60
2023-01-19T07:59:11.193Z,38.71
2023-01-19T08:00:15.453Z,38.24
2023-01-19T08:01:18.892Z,38.70
2023-01-19T08:02:21.334Z,38.38
2023-01-19T08:03:24.573Z,39.70
2023-01-19T08:04:28.179Z,39.27
2023-01-19T08:05:31.484Z,38.28
2023-01-19T08:06:36.317Z,38.61
2023-01-19T08:07:39.642Z,37.94
2023-01-19T08:08:43.893Z,38.64
2023-01-19T08:09:46.150Z,39.45
2023-01-19T08:10:53.281Z,37.94
2023-01-19T08:11:55.758Z,38.08
2023-01-19T08:12:59.758Z,39.12
2023-01-19T08:14:02.671Z,38.30
2023-01-19T08:15:07.216Z,39.11
2023-01-19T08:16:09.846Z,38.17
2023-01-19T08:17:14.311Z,37.27
2023-01-19T08:18:18.123Z,37.30
2023-01-19T08:19:21.686Z,37.75
2023-01-19T08:20:24.685Z,38.32
2023-01-19T08:21:29.184Z,37.97
2023-01-19T08:22:32.669Z,37.13
2023-01-19T08:23:35.182Z,37.63
2023-01-19T08:24:38.473Z,36.65
2023-01-19T08:25:44.483Z,36.91
2023-01-19T08:26:49.733Z,37.51
2023-01-19T08:27:54.863Z,36.88
2023-01-19T08:29:00.553Z,37.67
2023-01-19T08:30:04.141Z,36.94
2023-01-19T08:31:19.182Z,36.21
2023-01-19T08:32:23.600Z,36.37
2023-01-19T08:33:26.296Z,35.79
2023-01-19T08:34:31.060Z,35.11
2023-01-19T08:35:37.049Z,34.12
2023-01-19T08:36:39.526Z,34.82
2023-01-19T08:37:42.861Z,33.93
2023-01-19T08:38:46.528Z,34.01
2023-01-19T08:39:50.009Z,34.27
2023-01-19T08:40:52.200Z,34.27
2023-01-19T08:41:57.048Z,32.95
2023-01-19T08:43:03.731Z,33.48
2023-01-19T08:44:07.066Z,33.76
2023-01-19T08:45:10.187Z,32.50
2023-01-19T08:46:17.037Z,32.37
2023-01-19T08:47:20.930Z,32.41
2023-01-19T08:48:23.927Z,32.85
2023-01-19T08:49:27.094Z,32.44
2023-01-19T08:50:31.219Z,32.67
2023-01-19T08:51:34.799Z,32.25
2023-01-19T08:52:38.227Z,31.68
2023-01-19T08:53:41.721Z,31.36
2023-01-19T08:54:44.875Z,32.28
2023-01-19T08:55:47.275Z,32.18
2023-01-19T08:56:50.561Z,32.38
2023-01-19T08:57:55.334Z,32.15
2023-01-19T09:00:22.179Z,32.02
2023-01-19T09:01:25.626Z,31.84
2023-01-19T09:02:29.809Z,31.75
2023-01-19T09:03:32.174Z,32.17
2023-01-19T09:04:35.618Z,32.43
2023-01-19T09:05:39.519Z,32.64
2023-01-19T09:06:42.791Z,32.11
2023-01-19T09:07:48.076Z,31.69
2023-01-19T09:08:51.586Z,31.14
2023-01-19T09:09:54.237Z,31.05
2023-01-19T09:10:57.662Z,31.50
2023-01-19T09:12:01.082Z,33.86
2023-01-19T09:13:07.141Z,34.94
2023-01-19T09:14:10.478Z,34.99
2023-01-19T09:15:14.076Z,36.54
2023-01-19T09:16:17.704Z,34.95
2023-01-19T09:17:20.061Z,33.87
2023-01-19T09:18:24.104Z,33.69
2023-01-19T09:19:26.556Z,32.40
2023-01-19T09:20:31.418Z,32.56
2023-01-19T09:21:34.746Z,32.84
2023-01-19T09:22:37.309Z,33.91
2023-01-19T09:23:40.908Z,34.17
2023-01-19T09:24:44.414Z,35.05
2023-01-19T09:25:49.326Z,34.37
2023-01-19T09:26:52.819Z,33.50
2023-01-19T09:27:56.242Z,32.59
2023-01-19T09:29:00.989Z,32.24
2023-01-19T09:30:04.334Z,30.67
2023-01-19T09:31:08.802Z,30.88
2023-01-19T09:32:12.131Z,31.17
2023-01-19T09:33:17.647Z,29.43
2023-01-19T09:34:22.795Z,29.17
2023-01-19T09:35:25.150Z,30.13
2023-01-19T09:36:30.198Z,31.60
2023-01-19T09:37:32.874Z,31.55
2023-01-19T09:38:36.137Z,31.92
2023-01-19T09:39:38.496Z,31.67
2023-01-19T09:40:44.235Z,31.13
2023-01-19T09:41:52.581Z,31.51
2023-01-19T09:42:57.571Z,32.20
2023-01-19T09:44:02.601Z,31.32
2023-01-19T09:45:12.205Z,31.77
2023-01-19T09:46:20.663Z,31.75
2023-01-19T09:47:28.744Z,30.90
2023-01-19T09:48:40.546Z,29.89
2023-01-19T09:49:48.730Z,29.45
2023-01-19T09:50:52.371Z,29.64
2023-01-19T09:51:56.213Z,28.58
2023-01-19T09:53:05.279Z,28.82
2023-01-19T09:54:14.915Z,28.09
2023-01-19T09:55:21.964Z,27.56
2023-01-19T09:56:25.995Z,26.71
2023-01-19T09:57:30.115Z,28.03
2023-01-19T09:58:33.824Z,29.72
2023-01-19T09:59:39.059Z,29.75
2023-01-19T10:00:44.669Z,29.81
2023-01-19T10:01:58.461Z,31.16
2023-01-19T10:03:13.982Z,31.91
2023-01-19T10:04:33.369Z,31.73
2023-01-19T10:05:44.899Z,31.18
2023-01-19T10:06:48.659Z,32.20
2023-01-19T10:08:08.697Z,29.83
2023-01-19T10:09:22.520Z,28.99
2023-01-19T10:10:28.478Z,28.88
2023-01-19T10:11:51.550Z,28.67
2023-01-19T10:13:06.427Z,27.97
2023-01-19T10:14:16.384Z,27.85
2023-01-19T10:15:33.311Z,27.54
2023-01-19T10:16:47.100Z,27.34
2023-01-19T10:18:02.155Z,27.14
2023-01-19T10:19:21.942Z,25.62
2023-01-19T10:20:34.399Z,25.95
2023-01-19T10:21:43.175Z,25.88
2023-01-19T10:22:50.216Z,25.86
2023-01-19T10:23:56.756Z,25.54
2023-01-19T10:25:06.032Z,26.36
2023-01-19T10:26:18.723Z,27.53
2023-01-19T10:27:24.810Z,28.21
2023-01-19T10:28:29.284Z,28.56
2023-01-19T10:29:36.427Z,28.09
2023-01-19T10:30:44.097Z,28.71
2023-01-19T10:31:49.555Z,29.61
2023-01-19T10:32:52.921Z,29.42
2023-01-19T10:33:56.249Z,29.04
2023-01-19T10:34:59.918Z,29.45
2023-01-19T10:36:06.611Z,30.51
2023-01-19T10:37:22.240Z,30.22
2023-01-19T10:38:28.061Z,29.88
2023-01-19T10:39:34.038Z,29.19
2023-01-19T10:40:49.704Z,29.16
2023-01-19T10:41:55.035Z,30.81
2023-01-19T10:42:58.148Z,30.67
2023-01-19T10:44:04.049Z,30.89
2023-01-19T10:45:16.511Z,31.60
2023-01-19T10:46:38.819Z,31.51
2023-01-19T10:47:42.948Z,31.36
2023-01-19T10:48:49.540Z,31.08
2023-01-19T10:49:53.075Z,31.32
2023-01-19T10:51:03.842Z,30.89
2023-01-19T10:52:09.295Z,31.80
2023-01-19T10:53:22.579Z,30.43
2023-01-19T10:54:29.020Z,30.71
2023-01-19T10:55:33.078Z,30.98
2023-01-19T10:56:38.544Z,31.28
2023-01-19T10:57:43.579Z,30.97
2023-01-19T10:58:46.877Z,30.05
2023-01-19T10:59:51.746Z,29.81
2023-01-19T11:00:54.250Z,30.99
2023-01-19T11:02:17.309Z,30.50
2023-01-19T11:03:25.541Z,30.99
2023-01-19T11:04:30.456Z,31.54
2023-01-19T11:05:35.502Z,31.61
2023-01-19T11:06:38.031Z,31.68
2023-01-19T11:07:41.265Z,30.95
2023-01-19T11:08:45.380Z,30.74
2023-01-19T11:09:50.191Z,31.11
2023-01-19T11:10:57.632Z,30.60
2023-01-19T11:12:00.204Z,30.05
2023-01-19T11:13:07.735Z,30.22
2023-01-19T11:14:14.255Z,29.47
2023-01-19T11:15:22.845Z,29.62
2023-01-19T11:16:27.787Z,29.30
2023-01-19T11:17:32.567Z,29.63
2023-01-19T11:18:37.791Z,29.38
2023-01-19T11:19:41.351Z,29.66
2023-01-19T11:20:51.973Z,29.67
2023-01-19T11:22:10.874Z,29.36
2023-01-19T11:23:24.443Z,28.35
2023-01-19T11:24:27.800Z,27.59
2023-01-19T11:25:33.446Z,26.81
2023-01-19T11:26:50.458Z,27.66
2023-01-19T11:27:53.398Z,26.77
2023-01-19T11:28:59.032Z,27.22
2023-01-19T11:30:10.537Z,27.33
2023-01-19T11:31:31.643Z,26.30
2023-01-19T11:32:37.675Z,26.83
2023-01-19T11:33:44.349Z,26.80
2023-01-19T11:34:47.733Z,26.19
2023-01-19T11:35:51.715Z,26.53
2023-01-19T11:37:01.963Z,27.04
2023-01-19T11:38:20.263Z,26.56
2023-01-19T11:39:26.611Z,26.49
2023-01-19T11:40:30.852Z,27.35
2023-01-19T11:41:37.617Z,27.75
2023-01-19T11:42:40.498Z,28.18
2023-01-19T11:43:49.208Z,28.58
2023-01-19T11:45:01.289Z,29.49
2023-01-19T11:46:05.393Z,29.93
2023-01-19T11:47:19.871Z,29.51
2023-01-19T11:48:33.957Z,29.20
2023-01-19T11:49:44.949Z,29.37
2023-01-19T11:50:49.771Z,29.51
2023-01-19T11:52:01.079Z,28.73
2023-01-19T11:53:12.108Z,28.76
2023-01-19T11:54:21.287Z,28.65
2023-01-19T11:55:32.603Z,28.88
2023-01-19T11:56:36.649Z,28.21
2023-01-19T11:57:46.453Z,28.33
2023-01-19T11:58:50.045Z,28.89
2023-01-19T11:59:54.826Z,27.95
2023-01-19T12:01:03.193Z,28.25
2023-01-19T12:02:17.820Z,28.44
2023-01-19T12:03:26.347Z,28.49
2023-01-19T12:04:34.687Z,28.48
2023-01-19T12:05:45.288Z,28.90
2023-01-19T12:06:54.359Z,28.61
2023-01-19T12:08:05.505Z,28.36
2023-01-19T12:09:19.605Z,29.04
2023-01-19T12:10:28.249Z,29.08
2023-01-19T12:11:35.820Z,29.20
2023-01-19T12:12:41.086Z,29.07
2023-01-19T12:13:46.755Z,29.57
2023-01-19T12:14:56.549Z,29.77
2023-01-19T12:16:04.381Z,29.14
2023-01-19T12:17:15.226Z,29.36
2023-01-19T12:18:22.392Z,29.03
2023-01-19T12:19:30.596Z,29.09
2023-01-19T12:20:39.790Z,28.55
2023-01-19T12:21:45.568Z,29.36
2023-01-19T12:22:55.193Z,29.89
2023-01-19T12:24:11.603Z,29.66
2023-01-19T12:25:23.553Z,29.48
2023-01-19T12:26:32.100Z,29.90
2023-01-19T12:27:41.264Z,28.91
2023-01-19T12:28:48.377Z,28.58
2023-01-19T12:29:52.249Z,29.05
2023-01-19T12:30:55.800Z,29.60
2023-01-19T12:32:21.383Z,29.68
2023-01-19T12:33:36.063Z,29.93
2023-01-19T12:34:46.812Z,29.45
2023-01-19T12:35:59.660Z,30.06
2023-01-19T12:37:05.086Z,28.94
2023-01-19T12:38:25.569Z,29.11
2023-01-19T12:39:29.708Z,29.88
2023-01-19T12:40:35.319Z,29.89
2023-01-19T12:41:39.156Z,30.54
2023-01-19T12:42:46.774Z,30.19
2023-01-19T12:44:20.676Z,30.46
2023-01-19T12:45:26.996Z,30.29
2023-01-19T12:46:31.542Z,30.35
2023-01-19T12:47:35.920Z,30.49
2023-01-19T12:48:39.468Z,31.19
2023-01-19T12:49:45.904Z,31.81
2023-01-19T12:50:49.138Z,32.48
2023-01-19T12:52:11.047Z,31.48
2023-01-19T12:53:20.589Z,32.09
2023-01-19T12:54:31.743Z,31.81
2023-01-19T12:55:38.248Z,31.99
2023-01-19T12:56:40.804Z,32.11
2023-01-19T12:57:52.228Z,31.92
2023-01-19T12:58:55.703Z,32.17
2023-01-19T13:00:00.957Z,31.92
2023-01-19T13:01:15.700Z,32.51
2023-01-19T13:02:53.455Z,32.47
2023-01-19T13:04:02.195Z,32.37
2023-01-19T13:05:34.420Z,31.98
2023-01-19T13:07:14.197Z,31.65
2023-01-19T13:08:36.441Z,31.92
2023-01-19T13:09:42.593Z,31.50
2023-01-19T13:11:13.907Z,31.62
2023-01-19T13:12:27.587Z,32.07
2023-01-19T13:13:31.694Z,32.51
2023-01-19T13:14:37.846Z,32.58
2023-01-19T13:15:40.262Z,32.14
2023-01-19T13:17:20.620Z,32.30
2023-01-19T13:18:26.780Z,32.14
2023-01-19T13:20:02.958Z,31.71
2023-01-19T13:21:08.641Z,32.33
2023-01-19T13:23:04.371Z,31.95
2023-01-19T13:24:15.045Z,32.22
2023-01-19T13:25:29.716Z,32.22
2023-01-19T13:26:35.739Z,31.81
2023-01-19T13:27:39.159Z,31.97
2023-01-19T13:28:45.081Z,31.93
2023-01-19T13:29:47.354Z,31.40
2023-01-19T13:30:58.031Z,31.37
2023-01-19T13:32:04.236Z,31.84
2023-01-19T13:33:18.470Z,31.53
2023-01-19T13:34:24.329Z,31.56
2023-01-19T13:35:28.501Z,31.08
2023-01-19T13:36:34.321Z,31.07
2023-01-19T13:37:40.508Z,31.15
2023-01-19T13:38:44.571Z,31.59
2023-01-19T13:39:52.239Z,30.82
2023-01-19T13:40:57.558Z,31.43
2023-01-19T13:42:04.685Z,31.48
2023-01-19T13:43:19.151Z,31.70
2023-01-19T13:44:26.896Z,32.38
2023-01-19T13:45:33.474Z,32.74
2023-01-19T13:46:38.795Z,32.08
2023-01-19T13:47:45.045Z,31.65
2023-01-19T13:48:57.637Z,31.42
2023-01-19T13:50:01.677Z,32.05
2023-01-19T13:51:07.114Z,31.96
2023-01-19T13:52:17.053Z,31.54
2023-01-19T13:53:21.265Z,31.61
2023-01-19T13:54:26.114Z,30.76
2023-01-19T13:55:32.249Z,30.79
2023-01-19T13:56:35.797Z,30.31
2023-01-19T13:57:41.007Z,30.51
2023-01-19T13:58:44.580Z,30.86
2023-01-19T14:00:02.738Z,30.97
2023-01-19T14:01:06.175Z,30.53
2023-01-19T14:02:15.547Z,30.59
2023-01-19T14:03:23.891Z,30.70
2023-01-19T14:04:32.149Z,30.80
2023-01-19T14:05:37.118Z,30.04
2023-01-19T14:06:45.895Z,30.49
2023-01-19T14:07:48.701Z,30.13
2023-01-19T14:09:07.860Z,31.00
2023-01-19T14:10:15.157Z,31.32
2023-01-19T14:11:19.969Z,31.62
2023-01-19T14:12:23.486Z,31.66
2023-01-19T14:13:29.911Z,32.19
2023-01-19T14:14:33.474Z,31.18